Hauptseite
METAR-TAF:

METAR-TAF

Flughäfen :

Verona, Italien

Flughafen Verona

Breite: 45-23N, Länge: 010-52E, Höhe: 67 m

Beobachtung

Neuester Wetterbericht von vor 2 Stunden und 32 Minuten, um 21:50 UTC
Wind 3 kt aus Nord/Nordwest, variierte zwischen Nordwest und Nord/Nordost
Temperatur 2°C
Luftfeuchtigkeit 93%
Luftdruck 1017 hPa
Sichtweite: 8000 m

METAR: LIPX 192150Z 34003KT 320V020 8000 NSC 02/01 Q1017

Zeit: 01:22 (00:22 UTC)

Prognose

Neuester Wetterbericht von vor 1 Stunde und 22 Minuten, um 23:00 UTC
Gültige Prognose vom 20 um 00 UTC bis 20 um 09 UTC
Wind 6 kt aus Nord/Nordost
Sichtweite: 7000 m
Zeitweise
vom 20 um 00 UTC bis 20 um 08 UTC
Sichtweite: 3500 m
feuchter Dunst
Wahrscheinlichkeit 40% :
Zeitweise
vom 20 um 03 UTC bis 20 um 07 UTC
Sichtweite: 1500 m
Nebelschwaden

TAF: LIPX 192300Z 2000/2009 03006KT 7000 NSC TEMPO 2000/2008 3500 BR PROB40 TEMPO 2003/2007 1500 BCFG

Wetterbeobachtungen und Prognosen von mehr als 4000 Flughäfen (METAR und TAF Bericht).

Die verfügbaren Stationen werden durch gelbe und rote Markierungen auf der Karte dargestellt.

Führen Sie die Maus auf sie, um den Namen der Station zu sehen.

Darauf klicken, um die Beobachtung von Wetterbeobachtungen und Prognosen zu sehen.

Um die Karte zu ändern : klicken Sie auf den grünen Tasten mit einem schwarzen Kreuz Zum Vergrößern, auf den grünen Button mit einem Gedankenstrich zu verkleinern, oder auf die grünen Pfeile für benachbarte Karten.


METAR-TAF: